sensor_id;sensor_type;location;lat;lon;timestamp;temperature;humidity
64670;DHT22;51080;51.690;5.174;2022-08-06T00:01:59;14.20;56.80
64670;DHT22;51080;51.690;5.174;2022-08-06T00:07:43;14.10;58.40
64670;DHT22;51080;51.690;5.174;2022-08-06T00:13:28;14.10;58.80
64670;DHT22;51080;51.690;5.174;2022-08-06T00:19:11;14.00;59.00
64670;DHT22;51080;51.690;5.174;2022-08-06T00:24:56;13.90;59.10
64670;DHT22;51080;51.690;5.174;2022-08-06T00:30:40;13.80;59.10
64670;DHT22;51080;51.690;5.174;2022-08-06T00:36:26;13.80;59.30
64670;DHT22;51080;51.690;5.174;2022-08-06T00:42:41;13.80;59.50
64670;DHT22;51080;51.690;5.174;2022-08-06T00:48:26;13.70;58.10
64670;DHT22;51080;51.690;5.174;2022-08-06T00:54:40;13.60;59.70
64670;DHT22;51080;51.690;5.174;2022-08-06T01:00:25;13.60;58.40
64670;DHT22;51080;51.690;5.174;2022-08-06T01:06:10;13.50;60.10
64670;DHT22;51080;51.690;5.174;2022-08-06T01:11:54;13.40;60.10
64670;DHT22;51080;51.690;5.174;2022-08-06T01:17:41;13.40;60.20
64670;DHT22;51080;51.690;5.174;2022-08-06T01:23:49;13.30;60.40
64670;DHT22;51080;51.690;5.174;2022-08-06T01:30:15;13.30;60.50
64670;DHT22;51080;51.690;5.174;2022-08-06T01:36:04;13.20;59.50
64670;DHT22;51080;51.690;5.174;2022-08-06T01:41:51;13.20;60.90
64670;DHT22;51080;51.690;5.174;2022-08-06T01:47:38;13.20;61.20
64670;DHT22;51080;51.690;5.174;2022-08-06T01:53:28;13.10;61.20
64670;DHT22;51080;51.690;5.174;2022-08-06T01:59:16;13.00;61.30
64670;DHT22;51080;51.690;5.174;2022-08-06T02:05:01;13.00;61.30
64670;DHT22;51080;51.690;5.174;2022-08-06T02:11:16;13.00;61.40
64670;DHT22;51080;51.690;5.174;2022-08-06T02:17:02;12.90;60.10
64670;DHT22;51080;51.690;5.174;2022-08-06T02:23:20;12.90;61.60
64670;DHT22;51080;51.690;5.174;2022-08-06T02:29:06;12.90;60.20
64670;DHT22;51080;51.690;5.174;2022-08-06T02:34:50;12.90;61.50
64670;DHT22;51080;51.690;5.174;2022-08-06T02:40:44;12.80;61.80
64670;DHT22;51080;51.690;5.174;2022-08-06T02:46:36;12.70;62.00
64670;DHT22;51080;51.690;5.174;2022-08-06T02:58:32;12.60;62.30
64670;DHT22;51080;51.690;5.174;2022-08-06T03:04:18;12.60;62.40
64670;DHT22;51080;51.690;5.174;2022-08-06T03:10:05;12.60;62.50
64670;DHT22;51080;51.690;5.174;2022-08-06T03:15:52;12.60;62.50
64670;DHT22;51080;51.690;5.174;2022-08-06T03:21:36;12.50;62.60
64670;DHT22;51080;51.690;5.174;2022-08-06T03:27:22;12.50;62.80
64670;DHT22;51080;51.690;5.174;2022-08-06T03:33:15;12.40;62.80
64670;DHT22;51080;51.690;5.174;2022-08-06T03:39:03;12.40;62.80
64670;DHT22;51080;51.690;5.174;2022-08-06T03:44:47;12.40;63.00
64670;DHT22;51080;51.690;5.174;2022-08-06T03:50:36;12.40;63.10
64670;DHT22;51080;51.690;5.174;2022-08-06T03:56:23;12.30;63.10
64670;DHT22;51080;51.690;5.174;2022-08-06T04:02:09;12.30;63.20
64670;DHT22;51080;51.690;5.174;2022-08-06T04:07:57;12.30;63.10
64670;DHT22;51080;51.690;5.174;2022-08-06T04:13:43;12.20;63.10
64670;DHT22;51080;51.690;5.174;2022-08-06T04:19:28;12.20;63.20
64670;DHT22;51080;51.690;5.174;2022-08-06T04:25:14;12.20;63.20
64670;DHT22;51080;51.690;5.174;2022-08-06T04:30:59;12.10;63.30
64670;DHT22;51080;51.690;5.174;2022-08-06T04:36:45;12.10;63.40
64670;DHT22;51080;51.690;5.174;2022-08-06T04:42:30;12.10;63.50
64670;DHT22;51080;51.690;5.174;2022-08-06T04:48:15;12.10;63.60
64670;DHT22;51080;51.690;5.174;2022-08-06T04:54:03;12.20;63.60
64670;DHT22;51080;51.690;5.174;2022-08-06T04:59:48;12.20;63.90
64670;DHT22;51080;51.690;5.174;2022-08-06T05:11:30;12.20;64.30
64670;DHT22;51080;51.690;5.174;2022-08-06T05:17:20;12.30;64.40
64670;DHT22;51080;51.690;5.174;2022-08-06T05:23:18;12.40;64.30
64670;DHT22;51080;51.690;5.174;2022-08-06T05:29:03;12.40;64.50
64670;DHT22;51080;51.690;5.174;2022-08-06T05:34:48;12.40;64.70
64670;DHT22;51080;51.690;5.174;2022-08-06T05:46:34;12.60;64.70
64670;DHT22;51080;51.690;5.174;2022-08-06T05:58:19;13.10;64.40
64670;DHT22;51080;51.690;5.174;2022-08-06T06:04:05;13.20;64.30
64670;DHT22;51080;51.690;5.174;2022-08-06T06:09:51;13.30;64.50
64670;DHT22;51080;51.690;5.174;2022-08-06T06:15:42;13.30;64.90
64670;DHT22;51080;51.690;5.174;2022-08-06T06:28:37;13.50;65.40
64670;DHT22;51080;51.690;5.174;2022-08-06T06:41:45;14.00;65.30
64670;DHT22;51080;51.690;5.174;2022-08-06T06:47:46;14.30;66.40
64670;DHT22;51080;51.690;5.174;2022-08-06T06:53:35;14.60;65.40
64670;DHT22;51080;51.690;5.174;2022-08-06T06:59:34;14.80;65.50
64670;DHT22;51080;51.690;5.174;2022-08-06T07:05:20;15.10;65.40
64670;DHT22;51080;51.690;5.174;2022-08-06T07:11:36;15.30;64.60
64670;DHT22;51080;51.690;5.174;2022-08-06T07:17:22;15.60;64.40
64670;DHT22;51080;51.690;5.174;2022-08-06T07:23:09;15.90;63.10
64670;DHT22;51080;51.690;5.174;2022-08-06T07:28:54;16.10;63.00
64670;DHT22;51080;51.690;5.174;2022-08-06T07:34:39;16.30;62.50
64670;DHT22;51080;51.690;5.174;2022-08-06T07:40:30;16.50;61.70
64670;DHT22;51080;51.690;5.174;2022-08-06T07:46:19;16.70;60.70
64670;DHT22;51080;51.690;5.174;2022-08-06T07:52:07;16.90;60.40
64670;DHT22;51080;51.690;5.174;2022-08-06T07:57:54;17.10;60.10
64670;DHT22;51080;51.690;5.174;2022-08-06T08:04:09;17.30;59.60
64670;DHT22;51080;51.690;5.174;2022-08-06T08:09:55;17.40;58.80
64670;DHT22;51080;51.690;5.174;2022-08-06T08:15:41;17.60;59.00
64670;DHT22;51080;51.690;5.174;2022-08-06T08:21:25;17.80;58.80
64670;DHT22;51080;51.690;5.174;2022-08-06T08:27:39;18.10;58.10
64670;DHT22;51080;51.690;5.174;2022-08-06T08:33:24;18.40;55.80
64670;DHT22;51080;51.690;5.174;2022-08-06T08:39:08;18.40;55.40
64670;DHT22;51080;51.690;5.174;2022-08-06T08:44:54;18.50;54.80
64670;DHT22;51080;51.690;5.174;2022-08-06T08:50:42;18.80;54.70
64670;DHT22;51080;51.690;5.174;2022-08-06T08:56:27;19.20;54.00
64670;DHT22;51080;51.690;5.174;2022-08-06T09:02:13;19.70;52.30
64670;DHT22;51080;51.690;5.174;2022-08-06T09:07:59;21.10;48.90
64670;DHT22;51080;51.690;5.174;2022-08-06T09:13:44;24.40;45.20
64670;DHT22;51080;51.690;5.174;2022-08-06T09:19:29;28.00;39.70
64670;DHT22;51080;51.690;5.174;2022-08-06T09:25:35;26.80;40.20
64670;DHT22;51080;51.690;5.174;2022-08-06T09:31:21;25.70;40.80
64670;DHT22;51080;51.690;5.174;2022-08-06T09:37:06;29.50;38.20
64670;DHT22;51080;51.690;5.174;2022-08-06T09:42:52;32.70;33.60
64670;DHT22;51080;51.690;5.174;2022-08-06T09:48:36;31.70;34.90
64670;DHT22;51080;51.690;5.174;2022-08-06T09:54:21;31.90;34.90
64670;DHT22;51080;51.690;5.174;2022-08-06T10:00:07;31.60;35.00
64670;DHT22;51080;51.690;5.174;2022-08-06T10:11:56;29.10;36.50
64670;DHT22;51080;51.690;5.174;2022-08-06T10:17:47;30.10;34.60
64670;DHT22;51080;51.690;5.174;2022-08-06T10:23:35;32.40;33.00
64670;DHT22;51080;51.690;5.174;2022-08-06T10:29:20;34.50;30.10
64670;DHT22;51080;51.690;5.174;2022-08-06T10:35:06;35.70;29.10
64670;DHT22;51080;51.690;5.174;2022-08-06T10:40:52;36.30;28.70
64670;DHT22;51080;51.690;5.174;2022-08-06T10:46:37;36.90;28.80
64670;DHT22;51080;51.690;5.174;2022-08-06T10:52:22;37.20;27.80
64670;DHT22;51080;51.690;5.174;2022-08-06T10:58:08;36.70;28.60
64670;DHT22;51080;51.690;5.174;2022-08-06T11:04:26;36.90;28.00
64670;DHT22;51080;51.690;5.174;2022-08-06T11:16:23;32.90;31.60
64670;DHT22;51080;51.690;5.174;2022-08-06T11:28:18;34.00;30.10
64670;DHT22;51080;51.690;5.174;2022-08-06T11:34:05;33.70;30.30
64670;DHT22;51080;51.690;5.174;2022-08-06T11:40:07;33.30;31.00
64670;DHT22;51080;51.690;5.174;2022-08-06T11:46:20;32.70;31.00
64670;DHT22;51080;51.690;5.174;2022-08-06T11:52:08;32.10;31.20
64670;DHT22;51080;51.690;5.174;2022-08-06T11:58:17;31.70;31.30
64670;DHT22;51080;51.690;5.174;2022-08-06T12:04:03;31.50;32.00
64670;DHT22;51080;51.690;5.174;2022-08-06T12:10:07;31.50;31.60
64670;DHT22;51080;51.690;5.174;2022-08-06T12:15:52;31.50;31.20
64670;DHT22;51080;51.690;5.174;2022-08-06T12:21:36;31.60;31.90
64670;DHT22;51080;51.690;5.174;2022-08-06T12:27:23;31.20;32.00
64670;DHT22;51080;51.690;5.174;2022-08-06T12:33:14;30.30;32.90
64670;DHT22;51080;51.690;5.174;2022-08-06T12:39:00;29.00;33.50
64670;DHT22;51080;51.690;5.174;2022-08-06T12:44:48;29.30;33.80
64670;DHT22;51080;51.690;5.174;2022-08-06T12:50:36;30.50;32.60
64670;DHT22;51080;51.690;5.174;2022-08-06T12:56:23;31.10;31.80
64670;DHT22;51080;51.690;5.174;2022-08-06T13:02:09;30.90;32.70
64670;DHT22;51080;51.690;5.174;2022-08-06T13:07:57;31.70;31.70
64670;DHT22;51080;51.690;5.174;2022-08-06T13:13:50;32.50;30.00
64670;DHT22;51080;51.690;5.174;2022-08-06T13:19:53;32.70;30.80
64670;DHT22;51080;51.690;5.174;2022-08-06T13:25:48;31.80;31.30
64670;DHT22;51080;51.690;5.174;2022-08-06T13:31:39;32.60;30.40
64670;DHT22;51080;51.690;5.174;2022-08-06T13:37:49;33.30;29.30
64670;DHT22;51080;51.690;5.174;2022-08-06T13:43:42;34.00;29.20
64670;DHT22;51080;51.690;5.174;2022-08-06T13:49:32;34.00;29.40
64670;DHT22;51080;51.690;5.174;2022-08-06T13:55:24;33.70;30.10
64670;DHT22;51080;51.690;5.174;2022-08-06T14:01:15;34.90;29.40
64670;DHT22;51080;51.690;5.174;2022-08-06T14:07:03;35.80;28.10
64670;DHT22;51080;51.690;5.174;2022-08-06T14:12:48;36.10;27.60
64670;DHT22;51080;51.690;5.174;2022-08-06T14:18:32;35.90;28.20
64670;DHT22;51080;51.690;5.174;2022-08-06T14:24:19;35.70;28.60
64670;DHT22;51080;51.690;5.174;2022-08-06T14:30:06;36.60;28.10
64670;DHT22;51080;51.690;5.174;2022-08-06T14:35:51;37.10;27.60
64670;DHT22;51080;51.690;5.174;2022-08-06T14:41:35;36.10;28.20
64670;DHT22;51080;51.690;5.174;2022-08-06T14:47:24;33.40;29.90
64670;DHT22;51080;51.690;5.174;2022-08-06T14:53:12;32.20;31.60
64670;DHT22;51080;51.690;5.174;2022-08-06T14:59:00;33.60;30.20
64670;DHT22;51080;51.690;5.174;2022-08-06T15:04:50;34.30;29.30
64670;DHT22;51080;51.690;5.174;2022-08-06T15:10:39;33.60;30.00
64670;DHT22;51080;51.690;5.174;2022-08-06T15:16:26;31.80;30.90
64670;DHT22;51080;51.690;5.174;2022-08-06T15:22:13;30.80;31.80
64670;DHT22;51080;51.690;5.174;2022-08-06T15:28:01;30.00;32.60
64670;DHT22;51080;51.690;5.174;2022-08-06T15:33:48;29.00;33.50
64670;DHT22;51080;51.690;5.174;2022-08-06T15:39:35;28.20;33.70
64670;DHT22;51080;51.690;5.174;2022-08-06T15:45:22;27.70;34.30
64670;DHT22;51080;51.690;5.174;2022-08-06T15:51:10;27.40;34.60
64670;DHT22;51080;51.690;5.174;2022-08-06T15:56:58;28.30;33.90
64670;DHT22;51080;51.690;5.174;2022-08-06T16:02:46;30.60;31.10
64670;DHT22;51080;51.690;5.174;2022-08-06T16:08:34;31.40;31.40
64670;DHT22;51080;51.690;5.174;2022-08-06T16:14:21;30.90;31.50
64670;DHT22;51080;51.690;5.174;2022-08-06T16:20:08;29.60;32.40
64670;DHT22;51080;51.690;5.174;2022-08-06T16:25:55;28.50;33.80
64670;DHT22;51080;51.690;5.174;2022-08-06T16:31:42;27.90;33.80
64670;DHT22;51080;51.690;5.174;2022-08-06T16:37:29;27.50;34.40
64670;DHT22;51080;51.690;5.174;2022-08-06T16:43:17;27.10;34.80
64670;DHT22;51080;51.690;5.174;2022-08-06T16:49:05;26.70;35.30
64670;DHT22;51080;51.690;5.174;2022-08-06T16:54:53;26.40;35.10
64670;DHT22;51080;51.690;5.174;2022-08-06T17:00:38;26.10;35.70
64670;DHT22;51080;51.690;5.174;2022-08-06T17:06:29;25.70;36.10
64670;DHT22;51080;51.690;5.174;2022-08-06T17:12:13;25.40;36.30
64670;DHT22;51080;51.690;5.174;2022-08-06T17:17:57;25.20;37.10
64670;DHT22;51080;51.690;5.174;2022-08-06T17:23:42;25.10;37.20
64670;DHT22;51080;51.690;5.174;2022-08-06T17:29:27;25.30;36.90
64670;DHT22;51080;51.690;5.174;2022-08-06T17:35:12;25.40;36.80
64670;DHT22;51080;51.690;5.174;2022-08-06T17:41:01;25.20;37.30
64670;DHT22;51080;51.690;5.174;2022-08-06T17:46:48;24.90;37.50
64670;DHT22;51080;51.690;5.174;2022-08-06T17:52:38;24.60;37.80
64670;DHT22;51080;51.690;5.174;2022-08-06T17:58:29;24.30;38.40
64670;DHT22;51080;51.690;5.174;2022-08-06T18:04:22;23.90;38.60
64670;DHT22;51080;51.690;5.174;2022-08-06T18:10:11;23.50;39.10
64670;DHT22;51080;51.690;5.174;2022-08-06T18:15:58;23.30;39.50
64670;DHT22;51080;51.690;5.174;2022-08-06T18:21:47;23.00;39.80
64670;DHT22;51080;51.690;5.174;2022-08-06T18:27:33;22.50;40.20
64670;DHT22;51080;51.690;5.174;2022-08-06T18:33:21;22.20;40.60
64670;DHT22;51080;51.690;5.174;2022-08-06T18:39:05;21.80;41.30
64670;DHT22;51080;51.690;5.174;2022-08-06T18:44:50;21.60;41.50
64670;DHT22;51080;51.690;5.174;2022-08-06T18:50:36;21.40;42.00
64670;DHT22;51080;51.690;5.174;2022-08-06T18:56:23;21.10;42.40
64670;DHT22;51080;51.690;5.174;2022-08-06T19:02:10;21.00;42.60
64670;DHT22;51080;51.690;5.174;2022-08-06T19:07:58;20.80;43.00
64670;DHT22;51080;51.690;5.174;2022-08-06T19:14:20;20.90;44.20
64670;DHT22;51080;51.690;5.174;2022-08-06T19:20:06;20.50;44.30
64670;DHT22;51080;51.690;5.174;2022-08-06T19:25:51;20.30;43.80
64670;DHT22;51080;51.690;5.174;2022-08-06T19:31:36;20.20;44.40
64670;DHT22;51080;51.690;5.174;2022-08-06T19:37:22;20.00;44.60
64670;DHT22;51080;51.690;5.174;2022-08-06T19:43:07;19.80;45.00
64670;DHT22;51080;51.690;5.174;2022-08-06T19:48:53;19.70;45.40
64670;DHT22;51080;51.690;5.174;2022-08-06T19:54:37;19.60;45.70
64670;DHT22;51080;51.690;5.174;2022-08-06T20:00:22;19.50;45.90
64670;DHT22;51080;51.690;5.174;2022-08-06T20:06:07;19.40;46.20
64670;DHT22;51080;51.690;5.174;2022-08-06T20:11:53;19.30;46.40
64670;DHT22;51080;51.690;5.174;2022-08-06T20:17:39;19.10;46.90
64670;DHT22;51080;51.690;5.174;2022-08-06T20:23:24;19.00;47.30
64670;DHT22;51080;51.690;5.174;2022-08-06T20:29:08;18.90;47.60
64670;DHT22;51080;51.690;5.174;2022-08-06T20:34:52;18.80;47.80
64670;DHT22;51080;51.690;5.174;2022-08-06T20:41:07;18.80;47.90
64670;DHT22;51080;51.690;5.174;2022-08-06T20:46:52;18.60;47.90
64670;DHT22;51080;51.690;5.174;2022-08-06T20:53:06;18.50;48.90
64670;DHT22;51080;51.690;5.174;2022-08-06T20:58:51;18.40;48.10
64670;DHT22;51080;51.690;5.174;2022-08-06T21:04:35;18.40;49.30
64670;DHT22;51080;51.690;5.174;2022-08-06T21:10:20;18.30;49.40
64670;DHT22;51080;51.690;5.174;2022-08-06T21:16:34;18.20;49.60
64670;DHT22;51080;51.690;5.174;2022-08-06T21:22:20;18.10;48.20
64670;DHT22;51080;51.690;5.174;2022-08-06T21:28:35;18.10;50.10
64670;DHT22;51080;51.690;5.174;2022-08-06T21:34:19;17.90;48.60
64670;DHT22;51080;51.690;5.174;2022-08-06T21:40:05;17.80;50.60
64670;DHT22;51080;51.690;5.174;2022-08-06T21:45:51;17.70;50.80
64670;DHT22;51080;51.690;5.174;2022-08-06T21:51:35;17.60;51.50
64670;DHT22;51080;51.690;5.174;2022-08-06T21:57:19;17.50;51.70
64670;DHT22;51080;51.690;5.174;2022-08-06T22:03:06;17.40;51.90
64670;DHT22;51080;51.690;5.174;2022-08-06T22:08:53;17.30;52.20
64670;DHT22;51080;51.690;5.174;2022-08-06T22:15:08;17.20;52.40
64670;DHT22;51080;51.690;5.174;2022-08-06T22:20:51;17.10;50.60
64670;DHT22;51080;51.690;5.174;2022-08-06T22:26:35;16.90;52.80
64670;DHT22;51080;51.690;5.174;2022-08-06T22:32:20;16.80;53.10
64670;DHT22;51080;51.690;5.174;2022-08-06T22:38:06;16.70;53.60
64670;DHT22;51080;51.690;5.174;2022-08-06T22:43:50;16.60;53.90
64670;DHT22;51080;51.690;5.174;2022-08-06T22:49:35;16.50;54.10
64670;DHT22;51080;51.690;5.174;2022-08-06T22:55:50;16.40;54.40
64670;DHT22;51080;51.690;5.174;2022-08-06T23:01:35;16.40;52.50
64670;DHT22;51080;51.690;5.174;2022-08-06T23:07:20;16.30;54.70
64670;DHT22;51080;51.690;5.174;2022-08-06T23:13:04;16.20;54.90
64670;DHT22;51080;51.690;5.174;2022-08-06T23:18:48;16.10;55.20
64670;DHT22;51080;51.690;5.174;2022-08-06T23:24:32;16.00;55.40
64670;DHT22;51080;51.690;5.174;2022-08-06T23:30:17;15.90;55.70
64670;DHT22;51080;51.690;5.174;2022-08-06T23:36:01;15.80;56.00
64670;DHT22;51080;51.690;5.174;2022-08-06T23:41:46;15.80;56.10
64670;DHT22;51080;51.690;5.174;2022-08-06T23:47:31;15.70;56.20
64670;DHT22;51080;51.690;5.174;2022-08-06T23:53:15;15.70;56.40
64670;DHT22;51080;51.690;5.174;2022-08-06T23:59:00;15.60;56.50
